sensor_id;sensor_type;location;lat;lon;timestamp;pressure;altitude;pressure_sealevel;temperature;humidity
16821;BME280;8527;49.740;6.604;2024-01-25T00:04:16;101067.94;;;7.42;100.00
16821;BME280;8527;49.740;6.604;2024-01-25T00:09:17;101070.09;;;7.37;100.00
16821;BME280;8527;49.740;6.604;2024-01-25T00:14:18;101066.59;;;7.37;100.00
16821;BME280;8527;49.740;6.604;2024-01-25T00:19:16;101069.03;;;7.40;100.00
16821;BME280;8527;49.740;6.604;2024-01-25T00:24:17;101064.41;;;7.30;100.00
16821;BME280;8527;49.740;6.604;2024-01-25T00:29:15;101060.31;;;7.26;100.00
16821;BME280;8527;49.740;6.604;2024-01-25T00:34:18;101068.34;;;7.25;100.00
16821;BME280;8527;49.740;6.604;2024-01-25T00:39:22;101058.91;;;7.34;100.00
16821;BME280;8527;49.740;6.604;2024-01-25T00:44:22;101062.13;;;7.26;100.00
16821;BME280;8527;49.740;6.604;2024-01-25T00:49:21;101060.09;;;7.29;100.00
16821;BME280;8527;49.740;6.604;2024-01-25T00:54:25;101050.59;;;7.27;100.00
16821;BME280;8527;49.740;6.604;2024-01-25T00:59:28;101045.22;;;7.28;100.00
16821;BME280;8527;49.740;6.604;2024-01-25T01:04:27;101041.06;;;7.13;100.00
16821;BME280;8527;49.740;6.604;2024-01-25T01:09:28;101040.81;;;7.04;100.00
16821;BME280;8527;49.740;6.604;2024-01-25T01:14:27;101038.50;;;7.00;100.00
16821;BME280;8527;49.740;6.604;2024-01-25T01:19:28;101046.53;;;6.98;100.00
16821;BME280;8527;49.740;6.604;2024-01-25T01:24:29;101054.81;;;7.05;100.00
16821;BME280;8527;49.740;6.604;2024-01-25T01:29:27;101040.19;;;7.01;100.00
16821;BME280;8527;49.740;6.604;2024-01-25T01:34:26;101052.25;;;6.92;100.00
16821;BME280;8527;49.740;6.604;2024-01-25T01:39:29;101073.81;;;6.86;100.00
16821;BME280;8527;49.740;6.604;2024-01-25T01:44:30;101067.38;;;6.90;100.00
16821;BME280;8527;49.740;6.604;2024-01-25T01:49:32;101071.72;;;6.78;100.00
16821;BME280;8527;49.740;6.604;2024-01-25T01:54:33;101066.91;;;6.72;100.00
16821;BME280;8527;49.740;6.604;2024-01-25T01:59:32;101090.09;;;6.67;100.00
16821;BME280;8527;49.740;6.604;2024-01-25T02:04:36;101078.19;;;6.74;100.00
16821;BME280;8527;49.740;6.604;2024-01-25T02:09:37;101065.53;;;6.66;100.00
16821;BME280;8527;49.740;6.604;2024-01-25T02:14:35;101077.91;;;6.53;100.00
16821;BME280;8527;49.740;6.604;2024-01-25T02:19:34;101069.16;;;6.52;100.00
16821;BME280;8527;49.740;6.604;2024-01-25T02:24:38;101076.03;;;6.42;100.00
16821;BME280;8527;49.740;6.604;2024-01-25T02:29:36;101099.78;;;6.29;100.00
16821;BME280;8527;49.740;6.604;2024-01-25T02:34:40;101086.59;;;6.29;100.00
16821;BME280;8527;49.740;6.604;2024-01-25T02:39:42;101106.41;;;6.22;100.00
16821;BME280;8527;49.740;6.604;2024-01-25T02:44:41;101102.41;;;6.16;100.00
16821;BME280;8527;49.740;6.604;2024-01-25T02:49:42;101102.00;;;6.09;100.00
16821;BME280;8527;49.740;6.604;2024-01-25T02:54:46;101094.41;;;6.17;100.00
16821;BME280;8527;49.740;6.604;2024-01-25T02:59:47;101117.41;;;6.15;100.00
16821;BME280;8527;49.740;6.604;2024-01-25T03:04:46;101098.13;;;6.02;100.00
16821;BME280;8527;49.740;6.604;2024-01-25T03:09:47;101101.13;;;5.96;100.00
16821;BME280;8527;49.740;6.604;2024-01-25T03:14:48;101101.00;;;5.84;100.00
16821;BME280;8527;49.740;6.604;2024-01-25T03:19:46;101099.19;;;5.72;100.00
16821;BME280;8527;49.740;6.604;2024-01-25T03:24:47;101087.84;;;5.71;100.00
16821;BME280;8527;49.740;6.604;2024-01-25T03:29:49;101081.72;;;5.71;100.00
16821;BME280;8527;49.740;6.604;2024-01-25T03:34:47;101078.13;;;5.72;100.00
16821;BME280;8527;49.740;6.604;2024-01-25T03:39:48;101075.28;;;5.62;100.00
16821;BME280;8527;49.740;6.604;2024-01-25T03:44:46;101081.28;;;5.51;100.00
16821;BME280;8527;49.740;6.604;2024-01-25T03:49:45;101084.50;;;5.42;100.00
16821;BME280;8527;49.740;6.604;2024-01-25T03:54:43;101083.94;;;5.24;100.00
16821;BME280;8527;49.740;6.604;2024-01-25T03:59:44;101073.19;;;5.14;100.00
16821;BME280;8527;49.740;6.604;2024-01-25T04:04:43;101083.06;;;5.10;100.00
16821;BME280;8527;49.740;6.604;2024-01-25T04:09:44;101065.47;;;5.11;100.00
16821;BME280;8527;49.740;6.604;2024-01-25T04:14:45;101077.88;;;5.09;100.00
16821;BME280;8527;49.740;6.604;2024-01-25T04:19:47;101073.34;;;5.11;100.00
16821;BME280;8527;49.740;6.604;2024-01-25T04:24:45;101083.28;;;4.92;100.00
16821;BME280;8527;49.740;6.604;2024-01-25T04:29:48;101091.44;;;5.02;100.00
16821;BME280;8527;49.740;6.604;2024-01-25T04:34:46;101104.38;;;5.05;100.00
16821;BME280;8527;49.740;6.604;2024-01-25T04:39:47;101104.63;;;5.15;100.00
16821;BME280;8527;49.740;6.604;2024-01-25T04:44:54;101114.97;;;5.18;100.00
16821;BME280;8527;49.740;6.604;2024-01-25T04:49:55;101115.66;;;5.07;100.00
16821;BME280;8527;49.740;6.604;2024-01-25T04:54:54;101112.28;;;5.05;100.00
16821;BME280;8527;49.740;6.604;2024-01-25T04:59:55;101117.91;;;4.99;100.00
16821;BME280;8527;49.740;6.604;2024-01-25T05:05:04;101130.72;;;4.91;100.00
16821;BME280;8527;49.740;6.604;2024-01-25T05:10:03;101129.69;;;4.79;100.00
16821;BME280;8527;49.740;6.604;2024-01-25T05:15:07;101137.25;;;4.71;100.00
16821;BME280;8527;49.740;6.604;2024-01-25T05:20:09;101134.03;;;4.65;100.00
16821;BME280;8527;49.740;6.604;2024-01-25T05:25:08;101127.56;;;4.71;100.00
16821;BME280;8527;49.740;6.604;2024-01-25T05:30:11;101130.31;;;4.70;100.00
16821;BME280;8527;49.740;6.604;2024-01-25T05:35:09;101129.53;;;4.53;100.00
16821;BME280;8527;49.740;6.604;2024-01-25T05:40:09;101137.53;;;4.52;100.00
16821;BME280;8527;49.740;6.604;2024-01-25T05:45:11;101138.56;;;4.49;100.00
16821;BME280;8527;49.740;6.604;2024-01-25T05:50:15;101129.00;;;4.33;100.00
16821;BME280;8527;49.740;6.604;2024-01-25T05:55:14;101126.72;;;4.42;100.00
16821;BME280;8527;49.740;6.604;2024-01-25T06:00:16;101131.50;;;4.35;100.00
16821;BME280;8527;49.740;6.604;2024-01-25T06:05:15;101135.66;;;4.25;100.00
16821;BME280;8527;49.740;6.604;2024-01-25T06:10:14;101145.72;;;4.32;100.00
16821;BME280;8527;49.740;6.604;2024-01-25T06:15:15;101151.00;;;4.02;100.00
16821;BME280;8527;49.740;6.604;2024-01-25T06:20:17;101156.47;;;4.13;100.00
16821;BME280;8527;49.740;6.604;2024-01-25T06:25:15;101160.53;;;4.33;100.00
16821;BME280;8527;49.740;6.604;2024-01-25T06:30:22;101163.03;;;4.20;100.00
16821;BME280;8527;49.740;6.604;2024-01-25T06:35:20;101177.47;;;4.13;100.00
16821;BME280;8527;49.740;6.604;2024-01-25T06:40:21;101184.69;;;4.10;100.00
16821;BME280;8527;49.740;6.604;2024-01-25T06:45:24;101176.97;;;3.92;100.00
16821;BME280;8527;49.740;6.604;2024-01-25T06:50:26;101175.59;;;4.01;100.00
16821;BME280;8527;49.740;6.604;2024-01-25T06:55:24;101181.44;;;3.90;100.00
16821;BME280;8527;49.740;6.604;2024-01-25T07:00:31;101192.63;;;3.93;100.00
16821;BME280;8527;49.740;6.604;2024-01-25T07:05:29;101205.03;;;3.59;100.00
16821;BME280;8527;49.740;6.604;2024-01-25T07:10:29;101211.22;;;3.58;100.00
16821;BME280;8527;49.740;6.604;2024-01-25T07:15:33;101212.06;;;3.75;100.00
16821;BME280;8527;49.740;6.604;2024-01-25T07:20:32;101214.31;;;3.81;100.00
16821;BME280;8527;49.740;6.604;2024-01-25T07:25:30;101219.56;;;3.81;100.00
16821;BME280;8527;49.740;6.604;2024-01-25T07:30:29;101223.06;;;3.82;100.00
16821;BME280;8527;49.740;6.604;2024-01-25T07:35:37;101211.97;;;3.76;100.00
16821;BME280;8527;49.740;6.604;2024-01-25T07:40:44;101214.44;;;3.79;100.00
16821;BME280;8527;49.740;6.604;2024-01-25T07:45:44;101215.97;;;3.51;100.00
16821;BME280;8527;49.740;6.604;2024-01-25T07:50:45;101218.47;;;3.85;100.00
16821;BME280;8527;49.740;6.604;2024-01-25T07:55:44;101207.09;;;4.01;100.00
16821;BME280;8527;49.740;6.604;2024-01-25T08:00:46;101206.03;;;4.03;100.00
16821;BME280;8527;49.740;6.604;2024-01-25T08:05:47;101204.31;;;4.18;100.00
16821;BME280;8527;49.740;6.604;2024-01-25T08:10:52;101204.59;;;4.28;100.00
16821;BME280;8527;49.740;6.604;2024-01-25T08:15:51;101204.72;;;4.27;100.00
16821;BME280;8527;49.740;6.604;2024-01-25T08:20:53;101189.25;;;4.51;100.00
16821;BME280;8527;49.740;6.604;2024-01-25T08:25:51;101184.84;;;4.66;100.00
16821;BME280;8527;49.740;6.604;2024-01-25T08:30:53;101199.84;;;4.78;100.00
16821;BME280;8527;49.740;6.604;2024-01-25T08:35:57;101192.06;;;4.48;100.00
16821;BME280;8527;49.740;6.604;2024-01-25T08:41:02;101175.47;;;4.62;100.00
16821;BME280;8527;49.740;6.604;2024-01-25T08:46:01;101182.88;;;4.84;100.00
16821;BME280;8527;49.740;6.604;2024-01-25T08:51:03;101192.81;;;4.79;100.00
16821;BME280;8527;49.740;6.604;2024-01-25T08:56:02;101180.28;;;4.97;100.00
16821;BME280;8527;49.740;6.604;2024-01-25T09:01:01;101197.03;;;4.82;100.00
16821;BME280;8527;49.740;6.604;2024-01-25T09:06:02;101199.75;;;4.80;100.00
16821;BME280;8527;49.740;6.604;2024-01-25T09:11:02;101182.94;;;4.97;100.00
16821;BME280;8527;49.740;6.604;2024-01-25T09:16:00;101186.91;;;5.17;100.00
16821;BME280;8527;49.740;6.604;2024-01-25T09:21:02;101174.69;;;5.31;100.00
16821;BME280;8527;49.740;6.604;2024-01-25T09:26:01;101176.00;;;5.78;100.00
16821;BME280;8527;49.740;6.604;2024-01-25T09:31:02;101186.59;;;6.04;100.00
16821;BME280;8527;49.740;6.604;2024-01-25T09:36:04;101182.63;;;6.51;100.00
16821;BME280;8527;49.740;6.604;2024-01-25T09:41:02;101168.13;;;6.95;100.00
16821;BME280;8527;49.740;6.604;2024-01-25T09:46:02;101169.09;;;7.18;100.00
16821;BME280;8527;49.740;6.604;2024-01-25T09:51:04;101179.72;;;7.30;100.00
16821;BME280;8527;49.740;6.604;2024-01-25T09:56:06;101192.31;;;7.51;100.00
16821;BME280;8527;49.740;6.604;2024-01-25T10:01:08;101196.97;;;7.47;100.00
16821;BME280;8527;49.740;6.604;2024-01-25T10:06:11;101201.91;;;7.52;100.00
16821;BME280;8527;49.740;6.604;2024-01-25T10:11:09;101206.78;;;7.69;100.00
16821;BME280;8527;49.740;6.604;2024-01-25T10:16:11;101215.72;;;7.80;100.00
16821;BME280;8527;49.740;6.604;2024-01-25T10:21:14;101216.25;;;7.85;100.00
16821;BME280;8527;49.740;6.604;2024-01-25T10:26:12;101209.47;;;8.05;100.00
16821;BME280;8527;49.740;6.604;2024-01-25T10:31:12;101202.53;;;8.27;100.00
16821;BME280;8527;49.740;6.604;2024-01-25T10:36:13;101199.00;;;8.73;100.00
16821;BME280;8527;49.740;6.604;2024-01-25T10:41:13;101198.63;;;9.01;97.98
16821;BME280;8527;49.740;6.604;2024-01-25T10:46:12;101192.69;;;9.32;98.52
16821;BME280;8527;49.740;6.604;2024-01-25T10:51:13;101185.06;;;9.50;95.71
16821;BME280;8527;49.740;6.604;2024-01-25T10:56:14;101181.19;;;9.54;94.18
16821;BME280;8527;49.740;6.604;2024-01-25T11:01:16;101177.50;;;9.66;92.46
16821;BME280;8527;49.740;6.604;2024-01-25T11:06:22;101178.56;;;9.75;91.88
16821;BME280;8527;49.740;6.604;2024-01-25T11:11:21;101164.53;;;9.84;92.56
16821;BME280;8527;49.740;6.604;2024-01-25T11:16:28;101164.47;;;9.96;91.48
16821;BME280;8527;49.740;6.604;2024-01-25T11:21:41;101163.84;;;9.82;91.08
16821;BME280;8527;49.740;6.604;2024-01-25T11:26:41;101158.97;;;9.88;90.44
16821;BME280;8527;49.740;6.604;2024-01-25T11:31:41;101153.88;;;9.96;92.01
16821;BME280;8527;49.740;6.604;2024-01-25T11:36:42;101142.16;;;9.98;90.54
16821;BME280;8527;49.740;6.604;2024-01-25T11:41:42;101135.81;;;10.11;89.79
16821;BME280;8527;49.740;6.604;2024-01-25T11:46:41;101126.38;;;10.18;89.08
16821;BME280;8527;49.740;6.604;2024-01-25T11:51:42;101125.28;;;10.21;88.16
16821;BME280;8527;49.740;6.604;2024-01-25T11:56:42;101121.56;;;10.33;88.37
16821;BME280;8527;49.740;6.604;2024-01-25T12:01:44;101114.69;;;10.31;87.37
16821;BME280;8527;49.740;6.604;2024-01-25T12:06:45;101106.41;;;10.45;87.57
16821;BME280;8527;49.740;6.604;2024-01-25T12:11:49;101099.09;;;10.37;87.24
16821;BME280;8527;49.740;6.604;2024-01-25T12:16:47;101082.53;;;10.45;87.35
16821;BME280;8527;49.740;6.604;2024-01-25T12:21:48;101076.53;;;10.43;87.51
16821;BME280;8527;49.740;6.604;2024-01-25T12:26:47;101070.25;;;10.54;87.92
16821;BME280;8527;49.740;6.604;2024-01-25T12:31:46;101071.00;;;10.66;87.38
16821;BME280;8527;49.740;6.604;2024-01-25T12:36:45;101070.44;;;10.62;87.79
16821;BME280;8527;49.740;6.604;2024-01-25T12:41:46;101060.53;;;10.64;88.45
16821;BME280;8527;49.740;6.604;2024-01-25T12:46:45;101054.78;;;10.49;89.06
16821;BME280;8527;49.740;6.604;2024-01-25T12:51:43;101053.25;;;10.57;90.93
16821;BME280;8527;49.740;6.604;2024-01-25T12:56:42;101057.69;;;10.46;92.81
16821;BME280;8527;49.740;6.604;2024-01-25T13:01:43;101049.94;;;10.33;97.28
16821;BME280;8527;49.740;6.604;2024-01-25T13:06:41;101044.84;;;10.20;100.00
16821;BME280;8527;49.740;6.604;2024-01-25T13:11:40;101042.75;;;10.14;100.00
16821;BME280;8527;49.740;6.604;2024-01-25T13:16:41;101026.53;;;10.07;100.00
16821;BME280;8527;49.740;6.604;2024-01-25T13:21:40;101021.78;;;10.11;100.00
16821;BME280;8527;49.740;6.604;2024-01-25T13:26:39;101018.94;;;9.93;100.00
16821;BME280;8527;49.740;6.604;2024-01-25T13:31:40;101012.69;;;10.04;100.00
16821;BME280;8527;49.740;6.604;2024-01-25T13:36:41;101009.94;;;10.05;100.00
16821;BME280;8527;49.740;6.604;2024-01-25T13:41:39;101014.56;;;10.13;100.00
16821;BME280;8527;49.740;6.604;2024-01-25T13:46:37;100993.66;;;9.89;100.00
16821;BME280;8527;49.740;6.604;2024-01-25T13:51:39;101000.41;;;10.03;100.00
16821;BME280;8527;49.740;6.604;2024-01-25T13:56:40;100995.13;;;10.03;100.00
16821;BME280;8527;49.740;6.604;2024-01-25T14:01:38;100981.31;;;10.09;100.00
16821;BME280;8527;49.740;6.604;2024-01-25T14:06:37;100981.88;;;10.03;100.00
16821;BME280;8527;49.740;6.604;2024-01-25T14:11:39;100976.72;;;10.11;100.00
16821;BME280;8527;49.740;6.604;2024-01-25T14:16:41;100958.09;;;9.91;100.00
16821;BME280;8527;49.740;6.604;2024-01-25T14:21:39;100951.44;;;9.97;100.00
16821;BME280;8527;49.740;6.604;2024-01-25T14:26:37;100934.38;;;9.90;100.00
16821;BME280;8527;49.740;6.604;2024-01-25T14:31:36;100932.88;;;9.97;100.00
16821;BME280;8527;49.740;6.604;2024-01-25T14:36:38;100945.84;;;10.00;100.00
16821;BME280;8527;49.740;6.604;2024-01-25T14:41:37;100946.81;;;9.99;100.00
16821;BME280;8527;49.740;6.604;2024-01-25T14:46:35;100947.78;;;9.88;100.00
16821;BME280;8527;49.740;6.604;2024-01-25T14:51:33;100945.38;;;9.85;100.00
16821;BME280;8527;49.740;6.604;2024-01-25T14:56:36;100936.91;;;9.91;100.00
16821;BME280;8527;49.740;6.604;2024-01-25T15:01:35;100939.38;;;9.83;100.00
16821;BME280;8527;49.740;6.604;2024-01-25T15:06:33;100933.75;;;9.76;100.00
16821;BME280;8527;49.740;6.604;2024-01-25T15:11:37;100938.06;;;9.67;100.00
16821;BME280;8527;49.740;6.604;2024-01-25T15:16:37;100926.44;;;9.59;100.00
16821;BME280;8527;49.740;6.604;2024-01-25T15:21:36;100923.53;;;9.62;100.00
16821;BME280;8527;49.740;6.604;2024-01-25T15:26:40;100926.31;;;9.60;100.00
16821;BME280;8527;49.740;6.604;2024-01-25T15:31:41;100918.19;;;9.52;100.00
16821;BME280;8527;49.740;6.604;2024-01-25T15:36:39;100914.75;;;9.61;100.00
16821;BME280;8527;49.740;6.604;2024-01-25T15:41:42;100918.91;;;9.54;100.00
16821;BME280;8527;49.740;6.604;2024-01-25T15:46:45;100915.97;;;9.57;100.00
16821;BME280;8527;49.740;6.604;2024-01-25T15:51:43;100915.88;;;9.68;100.00
16821;BME280;8527;49.740;6.604;2024-01-25T15:56:45;100907.06;;;9.58;100.00
16821;BME280;8527;49.740;6.604;2024-01-25T16:01:43;100914.97;;;9.48;100.00
16821;BME280;8527;49.740;6.604;2024-01-25T16:06:42;100912.03;;;9.51;100.00
16821;BME280;8527;49.740;6.604;2024-01-25T16:11:40;100912.03;;;9.51;100.00
16821;BME280;8527;49.740;6.604;2024-01-25T16:16:41;100914.84;;;9.50;100.00
16821;BME280;8527;49.740;6.604;2024-01-25T16:21:43;100921.50;;;9.44;100.00
16821;BME280;8527;49.740;6.604;2024-01-25T16:26:41;100916.72;;;9.38;100.00
16821;BME280;8527;49.740;6.604;2024-01-25T16:31:42;100925.53;;;9.38;100.00
16821;BME280;8527;49.740;6.604;2024-01-25T16:51:59;100898.22;;;9.17;100.00
16821;BME280;8527;49.740;6.604;2024-01-25T16:57:00;100887.50;;;9.18;100.00
16821;BME280;8527;49.740;6.604;2024-01-25T17:01:59;100886.47;;;9.09;100.00
16821;BME280;8527;49.740;6.604;2024-01-25T17:07:01;100888.88;;;9.12;100.00
16821;BME280;8527;49.740;6.604;2024-01-25T17:12:06;100869.50;;;9.12;100.00
16821;BME280;8527;49.740;6.604;2024-01-25T17:17:06;100877.81;;;9.07;100.00
16821;BME280;8527;49.740;6.604;2024-01-25T17:22:07;100878.47;;;8.99;100.00
16821;BME280;8527;49.740;6.604;2024-01-25T17:27:08;100875.16;;;9.07;100.00
16821;BME280;8527;49.740;6.604;2024-01-25T17:32:07;100859.38;;;8.96;100.00
16821;BME280;8527;49.740;6.604;2024-01-25T17:37:08;100861.84;;;8.88;100.00
16821;BME280;8527;49.740;6.604;2024-01-25T17:42:12;100854.81;;;8.98;100.00
16821;BME280;8527;49.740;6.604;2024-01-25T17:47:17;100861.78;;;8.99;100.00
16821;BME280;8527;49.740;6.604;2024-01-25T17:52:18;100857.63;;;9.06;100.00
16821;BME280;8527;49.740;6.604;2024-01-25T17:57:17;100856.22;;;9.02;100.00
16821;BME280;8527;49.740;6.604;2024-01-25T18:02:15;100860.97;;;9.08;100.00
16821;BME280;8527;49.740;6.604;2024-01-25T18:07:20;100864.00;;;9.04;100.00
16821;BME280;8527;49.740;6.604;2024-01-25T18:12:18;100859.13;;;8.99;100.00
16821;BME280;8527;49.740;6.604;2024-01-25T18:17:17;100859.59;;;9.14;100.00
16821;BME280;8527;49.740;6.604;2024-01-25T18:22:15;100868.66;;;9.11;100.00
16821;BME280;8527;49.740;6.604;2024-01-25T18:27:16;100873.81;;;9.13;100.00
16821;BME280;8527;49.740;6.604;2024-01-25T18:32:17;100863.06;;;9.05;100.00
16821;BME280;8527;49.740;6.604;2024-01-25T18:37:16;100865.81;;;9.03;100.00
16821;BME280;8527;49.740;6.604;2024-01-25T18:42:18;100851.63;;;9.04;100.00
16821;BME280;8527;49.740;6.604;2024-01-25T18:47:16;100853.41;;;9.04;100.00
16821;BME280;8527;49.740;6.604;2024-01-25T18:52:17;100850.22;;;9.00;100.00
16821;BME280;8527;49.740;6.604;2024-01-25T18:57:19;100843.78;;;9.03;100.00
16821;BME280;8527;49.740;6.604;2024-01-25T19:02:20;100845.44;;;8.94;100.00
16821;BME280;8527;49.740;6.604;2024-01-25T19:07:20;100851.41;;;8.96;100.00
16821;BME280;8527;49.740;6.604;2024-01-25T19:12:22;100843.78;;;9.03;100.00
16821;BME280;8527;49.740;6.604;2024-01-25T19:17:21;100847.56;;;9.00;100.00
16821;BME280;8527;49.740;6.604;2024-01-25T19:22:19;100845.88;;;8.99;100.00
16821;BME280;8527;49.740;6.604;2024-01-25T19:27:18;100847.69;;;8.98;100.00
16821;BME280;8527;49.740;6.604;2024-01-25T19:32:20;100844.25;;;9.08;100.00
16821;BME280;8527;49.740;6.604;2024-01-25T19:37:19;100836.16;;;9.09;100.00
16821;BME280;8527;49.740;6.604;2024-01-25T19:42:17;100827.41;;;9.09;100.00
16821;BME280;8527;49.740;6.604;2024-01-25T19:47:16;100841.16;;;9.03;100.00
16821;BME280;8527;49.740;6.604;2024-01-25T19:52:17;100834.75;;;9.05;100.00
16821;BME280;8527;49.740;6.604;2024-01-25T19:57:16;100835.72;;;9.04;100.00
16821;BME280;8527;49.740;6.604;2024-01-25T20:02:15;100825.56;;;9.09;100.00
16821;BME280;8527;49.740;6.604;2024-01-25T20:07:17;100828.22;;;9.09;100.00
16821;BME280;8527;49.740;6.604;2024-01-25T20:12:15;100831.34;;;9.14;100.00
16821;BME280;8527;49.740;6.604;2024-01-25T20:17:14;100828.97;;;9.11;100.00
16821;BME280;8527;49.740;6.604;2024-01-25T20:22:13;100819.41;;;8.99;100.00
16821;BME280;8527;49.740;6.604;2024-01-25T20:27:14;100824.41;;;8.92;100.00
16821;BME280;8527;49.740;6.604;2024-01-25T20:32:13;100815.09;;;8.98;100.00
16821;BME280;8527;49.740;6.604;2024-01-25T20:37:11;100807.16;;;8.98;100.00
16821;BME280;8527;49.740;6.604;2024-01-25T20:42:10;100811.22;;;9.02;100.00
16821;BME280;8527;49.740;6.604;2024-01-25T20:47:14;100800.94;;;9.09;100.00
16821;BME280;8527;49.740;6.604;2024-01-25T20:52:13;100802.72;;;9.08;100.00
16821;BME280;8527;49.740;6.604;2024-01-25T20:57:11;100807.78;;;9.11;100.00
16821;BME280;8527;49.740;6.604;2024-01-25T21:02:10;100819.00;;;9.04;100.00
16821;BME280;8527;49.740;6.604;2024-01-25T21:07:12;100811.63;;;9.07;100.00
16821;BME280;8527;49.740;6.604;2024-01-25T21:12:12;100800.81;;;9.10;100.00
16821;BME280;8527;49.740;6.604;2024-01-25T21:17:11;100806.81;;;9.12;100.00
16821;BME280;8527;49.740;6.604;2024-01-25T21:22:20;100810.66;;;9.08;100.00
16821;BME280;8527;49.740;6.604;2024-01-25T21:27:19;100808.16;;;9.07;100.00
16821;BME280;8527;49.740;6.604;2024-01-25T21:32:17;100792.13;;;9.08;100.00
16821;BME280;8527;49.740;6.604;2024-01-25T21:37:18;100791.16;;;9.09;100.00
16821;BME280;8527;49.740;6.604;2024-01-25T21:42:17;100791.16;;;9.09;100.00
16821;BME280;8527;49.740;6.604;2024-01-25T21:47:15;100785.88;;;9.09;100.00
16821;BME280;8527;49.740;6.604;2024-01-25T21:52:13;100790.84;;;9.03;100.00
16821;BME280;8527;49.740;6.604;2024-01-25T21:57:14;100800.22;;;9.07;100.00
16821;BME280;8527;49.740;6.604;2024-01-25T22:02:13;100791.31;;;9.08;100.00
16821;BME280;8527;49.740;6.604;2024-01-25T22:07:11;100800.94;;;9.09;100.00
16821;BME280;8527;49.740;6.604;2024-01-25T22:12:09;100812.75;;;9.05;100.00
16821;BME280;8527;49.740;6.604;2024-01-25T22:17:11;100796.88;;;9.05;100.00
16821;BME280;8527;49.740;6.604;2024-01-25T22:22:09;100791.16;;;9.09;100.00
16821;BME280;8527;49.740;6.604;2024-01-25T22:27:07;100791.59;;;9.05;100.00
16821;BME280;8527;49.740;6.604;2024-01-25T22:32:06;100789.19;;;9.01;100.00
16821;BME280;8527;49.740;6.604;2024-01-25T22:37:07;100785.25;;;8.96;100.00
16821;BME280;8527;49.740;6.604;2024-01-25T22:42:05;100778.59;;;9.01;100.00
16821;BME280;8527;49.740;6.604;2024-01-25T22:47:05;100769.56;;;9.04;100.00
16821;BME280;8527;49.740;6.604;2024-01-25T22:52:06;100773.44;;;9.00;100.00
16821;BME280;8527;49.740;6.604;2024-01-25T22:57:05;100760.91;;;9.02;100.00
16821;BME280;8527;49.740;6.604;2024-01-25T23:02:03;100761.72;;;8.93;100.00
16821;BME280;8527;49.740;6.604;2024-01-25T23:07:07;100762.56;;;8.93;100.00
16821;BME280;8527;49.740;6.604;2024-01-25T23:12:09;100754.22;;;8.98;100.00
16821;BME280;8527;49.740;6.604;2024-01-25T23:17:07;100758.78;;;8.96;100.00
16821;BME280;8527;49.740;6.604;2024-01-25T23:22:08;100765.75;;;8.97;100.00
16821;BME280;8527;49.740;6.604;2024-01-25T23:27:06;100765.13;;;9.05;100.00
16821;BME280;8527;49.740;6.604;2024-01-25T23:32:08;100762.59;;;9.03;100.00
16821;BME280;8527;49.740;6.604;2024-01-25T23:37:09;100766.06;;;9.04;100.00
16821;BME280;8527;49.740;6.604;2024-01-25T23:42:07;100763.88;;;9.09;100.00
16821;BME280;8527;49.740;6.604;2024-01-25T23:47:06;100766.41;;;9.10;100.00
16821;BME280;8527;49.740;6.604;2024-01-25T23:52:05;100749.53;;;9.11;100.00
16821;BME280;8527;49.740;6.604;2024-01-25T23:57:09;100745.34;;;9.09;100.00
